Terminal Aerodrome Forecast
Issued by NWS

Home | Current Version | Previous Version | Text Only | Print | Product List | Glossary On
Versions: 1 2 3 4 5 6 7 8 9 10 11 12 13 14 15 16 17 18 19
868
FTUS41 KAKQ 281140
TAFPHF
TAF
KPHF 281140Z 2812/2912 09005KT P6SM SCT250
      TEMPO 2812/2813 4SM BR BKN007
     FM281500 11006KT P6SM BKN150
     FM281700 12007KT P6SM VCTS BKN050CB
     FM282300 36004KT P6SM BKN060=

USA.gov is the U.S. government's official web portal to all federal, state and local government web resources and services.